sensor_id;sensor_type;location;lat;lon;timestamp;pressure;altitude;pressure_sealevel;temperature;humidity
53699;BME280;39591;53.952;27.612;2023-02-13T00:01:07;1021.7;;;1;62.7
53699;BME280;39591;53.952;27.612;2023-02-13T00:06:23;1021.7;;;1;62.9
53699;BME280;39591;53.952;27.612;2023-02-13T00:11:07;1021.6;;;1;63.1
53699;BME280;39591;53.952;27.612;2023-02-13T00:16:43;1021.6;;;1.1;63.4
53699;BME280;39591;53.952;27.612;2023-02-13T00:21:45;1021.5;;;1.1;63.6
53699;BME280;39591;53.952;27.612;2023-02-13T00:26:17;1021.6;;;1.1;63.8
53699;BME280;39591;53.952;27.612;2023-02-13T00:31:57;1021.5;;;1;64.3
53699;BME280;39591;53.952;27.612;2023-02-13T00:36:43;1021.4;;;1;64.6
53699;BME280;39591;53.952;27.612;2023-02-13T00:41:45;1021.4;;;1;65.1
53699;BME280;39591;53.952;27.612;2023-02-13T00:46:07;1021.3;;;1;65.6
53699;BME280;39591;53.952;27.612;2023-02-13T00:51:57;1021.3;;;1;65.9
53699;BME280;39591;53.952;27.612;2023-02-13T00:56:21;1021.1;;;1;66.3
53699;BME280;39591;53.952;27.612;2023-02-13T01:01:33;1021;;;1;66.6
53699;BME280;39591;53.952;27.612;2023-02-13T01:06:41;1020.9;;;1;66.7
53699;BME280;39591;53.952;27.612;2023-02-13T01:11:59;1020.8;;;1;66.9
53699;BME280;39591;53.952;27.612;2023-02-13T01:16:59;1020.7;;;1;67
53699;BME280;39591;53.952;27.612;2023-02-13T01:21:31;1020.7;;;1;67.2
53699;BME280;39591;53.952;27.612;2023-02-13T01:26:57;1020.7;;;1;67.5
53699;BME280;39591;53.952;27.612;2023-02-13T01:31:07;1020.7;;;1;67.6
53699;BME280;39591;53.952;27.612;2023-02-13T01:36:43;1020.7;;;1;67.9
53699;BME280;39591;53.952;27.612;2023-02-13T01:41:07;1020.7;;;1;67.8
53699;BME280;39591;53.952;27.612;2023-02-13T01:46:45;1020.7;;;1;68
53699;BME280;39591;53.952;27.612;2023-02-13T01:51:08;1020.6;;;1;68.2
53699;BME280;39591;53.952;27.612;2023-02-13T01:56:45;1020.5;;;1;68.4
53699;BME280;39591;53.952;27.612;2023-02-13T02:01:43;1020.4;;;1;69
53699;BME280;39591;53.952;27.612;2023-02-13T02:07:00;1020.3;;;0.9;69.3
53699;BME280;39591;53.952;27.612;2023-02-13T02:11:59;1020.4;;;0.9;69.7
53699;BME280;39591;53.952;27.612;2023-02-13T02:16:45;1020.4;;;0.9;70.2
53699;BME280;39591;53.952;27.612;2023-02-13T02:22:04;1020.3;;;1;70.3
53699;BME280;39591;53.952;27.612;2023-02-13T02:26:42;1020.2;;;1;70.5
53699;BME280;39591;53.952;27.612;2023-02-13T02:32:40;1020.2;;;1;70.9
53699;BME280;39591;53.952;27.612;2023-02-13T02:36:12;1020.2;;;1;71.2
53699;BME280;39591;53.952;27.612;2023-02-13T02:41:49;1020.1;;;1;71.6
53699;BME280;39591;53.952;27.612;2023-02-13T02:46:36;1020.2;;;1;72.2
53699;BME280;39591;53.952;27.612;2023-02-13T02:51:59;1020.1;;;0.9;72.9
53699;BME280;39591;53.952;27.612;2023-02-13T02:56:33;1020.2;;;0.9;73.4
53699;BME280;39591;53.952;27.612;2023-02-13T03:01:59;1020.1;;;0.9;73.6
53699;BME280;39591;53.952;27.612;2023-02-13T03:06:58;1020;;;0.9;74.2
53699;BME280;39591;53.952;27.612;2023-02-13T03:11:47;1019.8;;;0.9;74.5
53699;BME280;39591;53.952;27.612;2023-02-13T03:16:19;1019.7;;;0.8;75
53699;BME280;39591;53.952;27.612;2023-02-13T03:21:23;1019.8;;;0.9;75.1
53699;BME280;39591;53.952;27.612;2023-02-13T03:26:45;1019.8;;;0.9;75.3
53699;BME280;39591;53.952;27.612;2023-02-13T03:31:08;1019.8;;;0.9;75.6
53699;BME280;39591;53.952;27.612;2023-02-13T03:36:32;1019.8;;;1;75.5
53699;BME280;39591;53.952;27.612;2023-02-13T03:41:42;1019.8;;;1.1;75.3
53699;BME280;39591;53.952;27.612;2023-02-13T03:46:59;1019.9;;;1.2;75.1
53699;BME280;39591;53.952;27.612;2023-02-13T03:51:36;1019.9;;;1.2;74.9
53699;BME280;39591;53.952;27.612;2023-02-13T03:56:43;1019.8;;;1.4;74.9
53699;BME280;39591;53.952;27.612;2023-02-13T04:01:35;1019.6;;;1.4;74.9
53699;BME280;39591;53.952;27.612;2023-02-13T04:06:07;1019.6;;;1.4;74.8
53699;BME280;39591;53.952;27.612;2023-02-13T04:11:08;1019.7;;;1.4;75
53699;BME280;39591;53.952;27.612;2023-02-13T04:16:20;1019.7;;;1.4;75.1
53699;BME280;39591;53.952;27.612;2023-02-13T04:21:43;1019.7;;;1.4;75.6
53699;BME280;39591;53.952;27.612;2023-02-13T04:26:07;1019.7;;;1.4;76
53699;BME280;39591;53.952;27.612;2023-02-13T04:31:29;1019.8;;;1.4;76.4
53699;BME280;39591;53.952;27.612;2023-02-13T04:36:19;1019.9;;;1.3;76.4
53699;BME280;39591;53.952;27.612;2023-02-13T04:41:55;1019.8;;;1.3;76.8
53699;BME280;39591;53.952;27.612;2023-02-13T04:46:07;1019.7;;;1.3;77
53699;BME280;39591;53.952;27.612;2023-02-13T04:51:41;1019.8;;;1.3;77.3
53699;BME280;39591;53.952;27.612;2023-02-13T04:56:31;1019.9;;;1.3;77.5
53699;BME280;39591;53.952;27.612;2023-02-13T05:01:21;1019.9;;;1.4;77.7
53699;BME280;39591;53.952;27.612;2023-02-13T05:06:21;1019.8;;;1.4;77.5
53699;BME280;39591;53.952;27.612;2023-02-13T05:11:23;1019.8;;;1.5;77.6
53699;BME280;39591;53.952;27.612;2023-02-13T05:16:55;1019.8;;;1.5;77.5
53699;BME280;39591;53.952;27.612;2023-02-13T05:21:57;1019.7;;;1.6;77.3
53699;BME280;39591;53.952;27.612;2023-02-13T05:26:17;1019.7;;;1.7;77.5
53699;BME280;39591;53.952;27.612;2023-02-13T05:31:56;1019.8;;;1.8;77
53699;BME280;39591;53.952;27.612;2023-02-13T05:36:55;1019.9;;;1.8;76.9
53699;BME280;39591;53.952;27.612;2023-02-13T05:41:19;1019.9;;;1.9;76.8
53699;BME280;39591;53.952;27.612;2023-02-13T05:46:08;1019.9;;;1.9;76.9
53699;BME280;39591;53.952;27.612;2023-02-13T05:51:55;1019.9;;;1.9;77
53699;BME280;39591;53.952;27.612;2023-02-13T05:56:41;1019.9;;;1.9;76.9
53699;BME280;39591;53.952;27.612;2023-02-13T06:01:31;1019.8;;;1.9;77.1
53699;BME280;39591;53.952;27.612;2023-02-13T06:06:07;1019.9;;;2;77.2
53699;BME280;39591;53.952;27.612;2023-02-13T06:11:41;1019.9;;;2;77
53699;BME280;39591;53.952;27.612;2023-02-13T06:16:45;1019.8;;;2.1;76.9
53699;BME280;39591;53.952;27.612;2023-02-13T06:21:29;1019.8;;;2.1;76.9
53699;BME280;39591;53.952;27.612;2023-02-13T06:26:57;1019.7;;;2.2;77
53699;BME280;39591;53.952;27.612;2023-02-13T06:31:29;1019.7;;;2.3;76.9
53699;BME280;39591;53.952;27.612;2023-02-13T06:36:43;1019.6;;;2.3;76.9
53699;BME280;39591;53.952;27.612;2023-02-13T06:41:19;1019.5;;;2.3;77
53699;BME280;39591;53.952;27.612;2023-02-13T06:46:07;1019.4;;;2.4;76.6
53699;BME280;39591;53.952;27.612;2023-02-13T06:51:19;1019.4;;;2.5;76.5
53699;BME280;39591;53.952;27.612;2023-02-13T06:56:33;1019.4;;;2.6;75.9
53699;BME280;39591;53.952;27.612;2023-02-13T07:01:39;1019.4;;;2.7;75.6
53699;BME280;39591;53.952;27.612;2023-02-13T07:06:41;1019.3;;;2.9;75.5
53699;BME280;39591;53.952;27.612;2023-02-13T07:11:53;1019.3;;;3;75.1
53699;BME280;39591;53.952;27.612;2023-02-13T07:16:27;1019.2;;;3.1;74.6
53699;BME280;39591;53.952;27.612;2023-02-13T07:21:45;1019.2;;;3.2;74.1
53699;BME280;39591;53.952;27.612;2023-02-13T07:26:07;1019.1;;;3.3;73.7
53699;BME280;39591;53.952;27.612;2023-02-13T07:31:39;1019.1;;;3.4;73.5
53699;BME280;39591;53.952;27.612;2023-02-13T07:36:07;1019.2;;;3.5;73.3
53699;BME280;39591;53.952;27.612;2023-02-13T07:41:43;1019.2;;;3.5;73
53699;BME280;39591;53.952;27.612;2023-02-13T07:46:07;1019.3;;;3.5;73.2
53699;BME280;39591;53.952;27.612;2023-02-13T07:51:41;1019.3;;;3.5;73.2
53699;BME280;39591;53.952;27.612;2023-02-13T07:56:45;1019.2;;;3.6;73
53699;BME280;39591;53.952;27.612;2023-02-13T08:01:57;1019.2;;;3.6;73.1
53699;BME280;39591;53.952;27.612;2023-02-13T08:06:57;1019.3;;;3.6;72.9
53699;BME280;39591;53.952;27.612;2023-02-13T08:11:45;1019.3;;;3.5;73.1
53699;BME280;39591;53.952;27.612;2023-02-13T08:16:57;1019.3;;;3.6;72.8
53699;BME280;39591;53.952;27.612;2023-02-13T08:21:33;1019.2;;;3.5;73
53699;BME280;39591;53.952;27.612;2023-02-13T08:26:31;1019.2;;;3.6;73
53699;BME280;39591;53.952;27.612;2023-02-13T08:31:29;1019.1;;;3.7;72.6
53699;BME280;39591;53.952;27.612;2023-02-13T08:36:43;1019.1;;;3.8;72.4
53699;BME280;39591;53.952;27.612;2023-02-13T08:41:17;1019.1;;;3.8;72.5
53699;BME280;39591;53.952;27.612;2023-02-13T08:46:57;1019.1;;;3.8;72.4
53699;BME280;39591;53.952;27.612;2023-02-13T08:51:43;1019;;;3.9;72
53699;BME280;39591;53.952;27.612;2023-02-13T08:56:53;1018.9;;;4;71.9
53699;BME280;39591;53.952;27.612;2023-02-13T09:01:55;1018.9;;;4;71.7
53699;BME280;39591;53.952;27.612;2023-02-13T09:06:57;1018.9;;;4;71.9
53699;BME280;39591;53.952;27.612;2023-02-13T09:11:57;1018.9;;;3.9;71.7
53699;BME280;39591;53.952;27.612;2023-02-13T09:16:07;1018.8;;;3.9;71.8
53699;BME280;39591;53.952;27.612;2023-02-13T09:21:39;1018.8;;;4;71.6
53699;BME280;39591;53.952;27.612;2023-02-13T09:26:19;1018.7;;;4.1;71.5
53699;BME280;39591;53.952;27.612;2023-02-13T09:31:43;1018.6;;;4.4;70.9
53699;BME280;39591;53.952;27.612;2023-02-13T09:36:33;1018.7;;;4.5;70.5
53699;BME280;39591;53.952;27.612;2023-02-13T09:41:53;1018.6;;;4.6;70.1
53699;BME280;39591;53.952;27.612;2023-02-13T09:46:45;1018.4;;;4.7;69.6
53699;BME280;39591;53.952;27.612;2023-02-13T09:51:54;1018.5;;;4.7;69.6
53699;BME280;39591;53.952;27.612;2023-02-13T09:56:39;1018.5;;;4.6;69.7
53699;BME280;39591;53.952;27.612;2023-02-13T10:01:32;1018.5;;;4.6;69.6
53699;BME280;39591;53.952;27.612;2023-02-13T10:06:18;1018.5;;;4.7;69.4
53699;BME280;39591;53.952;27.612;2023-02-13T10:11:23;1018.6;;;4.6;69.5
53699;BME280;39591;53.952;27.612;2023-02-13T10:16:42;1018.7;;;4.5;69.8
53699;BME280;39591;53.952;27.612;2023-02-13T10:21:07;1018.7;;;4.5;69.9
53699;BME280;39591;53.952;27.612;2023-02-13T10:26:27;1018.7;;;4.5;69.9
53699;BME280;39591;53.952;27.612;2023-02-13T10:31:08;1018.6;;;4.6;69.8
53699;BME280;39591;53.952;27.612;2023-02-13T10:36:53;1018.6;;;4.8;69.4
53699;BME280;39591;53.952;27.612;2023-02-13T10:41:17;1018.5;;;4.9;69.2
53699;BME280;39591;53.952;27.612;2023-02-13T10:46:39;1018.5;;;4.9;68.9
53699;BME280;39591;53.952;27.612;2023-02-13T10:51:32;1018.4;;;4.8;69.2
53699;BME280;39591;53.952;27.612;2023-02-13T10:56:10;1018.4;;;4.7;69.5
53699;BME280;39591;53.952;27.612;2023-02-13T11:01:34;1018.3;;;4.7;69.8
53699;BME280;39591;53.952;27.612;2023-02-13T11:06:10;1018.2;;;4.8;69.8
53699;BME280;39591;53.952;27.612;2023-02-13T11:11:53;1018.2;;;4.8;69.8
53699;BME280;39591;53.952;27.612;2023-02-13T11:16:54;1018.3;;;4.7;69.8
53699;BME280;39591;53.952;27.612;2023-02-13T11:21:31;1018.2;;;4.8;69.7
53699;BME280;39591;53.952;27.612;2023-02-13T11:26:57;1018.1;;;4.8;69.8
53699;BME280;39591;53.952;27.612;2023-02-13T11:31:59;1018;;;4.9;69.5
53699;BME280;39591;53.952;27.612;2023-02-13T11:36:24;1017.9;;;5;69.3
53699;BME280;39591;53.952;27.612;2023-02-13T11:41:21;1017.9;;;5;69.3
53699;BME280;39591;53.952;27.612;2023-02-13T11:46:50;1017.8;;;5.1;68.9
53699;BME280;39591;53.952;27.612;2023-02-13T11:51:19;1017.7;;;5.1;68.7
53699;BME280;39591;53.952;27.612;2023-02-13T11:56:35;1017.6;;;5.1;68.7
53699;BME280;39591;53.952;27.612;2023-02-13T12:01:20;1017.6;;;5;68.8
53699;BME280;39591;53.952;27.612;2023-02-13T12:06:39;1017.6;;;5;69
53699;BME280;39591;53.952;27.612;2023-02-13T12:11:43;1017.6;;;5.1;68.5
53699;BME280;39591;53.952;27.612;2023-02-13T12:16:21;1017.5;;;5.1;68.7
53699;BME280;39591;53.952;27.612;2023-02-13T12:21:58;1017.4;;;5;69
53699;BME280;39591;53.952;27.612;2023-02-13T12:26:54;1017.2;;;5.3;68.6
53699;BME280;39591;53.952;27.612;2023-02-13T12:31:23;1017.2;;;5.2;68.5
53699;BME280;39591;53.952;27.612;2023-02-13T12:36:08;1017.1;;;5.2;68.6
53699;BME280;39591;53.952;27.612;2023-02-13T12:41:42;1017.1;;;5.1;68.7
53699;BME280;39591;53.952;27.612;2023-02-13T12:46:20;1017.1;;;5.1;68.8
53699;BME280;39591;53.952;27.612;2023-02-13T12:51:32;1017.1;;;5;68.7
53699;BME280;39591;53.952;27.612;2023-02-13T12:56:33;1017;;;4.7;69.5
53699;BME280;39591;53.952;27.612;2023-02-13T13:01:58;1017;;;4.6;69.9
53699;BME280;39591;53.952;27.612;2023-02-13T13:06:49;1017;;;4.6;69.9
53699;BME280;39591;53.952;27.612;2023-02-13T13:11:44;1016.9;;;4.5;70.2
53699;BME280;39591;53.952;27.612;2023-02-13T13:16:55;1016.9;;;4.5;70.4
53699;BME280;39591;53.952;27.612;2023-02-13T13:21:31;1016.9;;;4.5;70.2
53699;BME280;39591;53.952;27.612;2023-02-13T13:26:44;1016.9;;;4.5;70.3
53699;BME280;39591;53.952;27.612;2023-02-13T13:31:35;1017;;;4.5;70.4
53699;BME280;39591;53.952;27.612;2023-02-13T13:36:32;1017;;;4.5;70.3
53699;BME280;39591;53.952;27.612;2023-02-13T13:41:08;1016.9;;;4.4;70.7
53699;BME280;39591;53.952;27.612;2023-02-13T13:46:34;1017;;;4.3;71
53699;BME280;39591;53.952;27.612;2023-02-13T13:51:41;1017;;;4.3;71.3
53699;BME280;39591;53.952;27.612;2023-02-13T13:57:11;1017;;;4.2;71.6
53699;BME280;39591;53.952;27.612;2023-02-13T14:02:08;1017;;;4.2;71.8
53699;BME280;39591;53.952;27.612;2023-02-13T14:06:19;1016.9;;;4.2;71.9
53699;BME280;39591;53.952;27.612;2023-02-13T14:11:51;1016.9;;;4.2;71.9
53699;BME280;39591;53.952;27.612;2023-02-13T14:16:08;1017;;;4.2;72
53699;BME280;39591;53.952;27.612;2023-02-13T14:21:41;1017.1;;;4.2;72
53699;BME280;39591;53.952;27.612;2023-02-13T14:26:24;1017.1;;;4.1;72.4
53699;BME280;39591;53.952;27.612;2023-02-13T14:31:52;1017.1;;;4.1;72.5
53699;BME280;39591;53.952;27.612;2023-02-13T14:36:08;1017.1;;;4;72.8
53699;BME280;39591;53.952;27.612;2023-02-13T14:41:58;1016.9;;;4.1;72.7
53699;BME280;39591;53.952;27.612;2023-02-13T14:46:43;1016.9;;;4;72.8
53699;BME280;39591;53.952;27.612;2023-02-13T14:51:57;1017;;;4;72.9
53699;BME280;39591;53.952;27.612;2023-02-13T14:56:59;1017;;;4;73.1
53699;BME280;39591;53.952;27.612;2023-02-13T15:01:41;1017;;;3.9;73
53699;BME280;39591;53.952;27.612;2023-02-13T15:06:55;1017;;;3.9;73
53699;BME280;39591;53.952;27.612;2023-02-13T15:11:45;1017.1;;;3.9;73.1
53699;BME280;39591;53.952;27.612;2023-02-13T15:16:29;1017.1;;;3.8;73.3
53699;BME280;39591;53.952;27.612;2023-02-13T15:21:08;1016.9;;;3.8;73.4
53699;BME280;39591;53.952;27.612;2023-02-13T15:26:48;1016.7;;;3.7;73.6
53699;BME280;39591;53.952;27.612;2023-02-13T15:31:41;1016.7;;;3.7;73.6
53699;BME280;39591;53.952;27.612;2023-02-13T15:36:57;1016.7;;;3.7;73.6
53699;BME280;39591;53.952;27.612;2023-02-13T15:41:08;1016.8;;;3.8;73.8
53699;BME280;39591;53.952;27.612;2023-02-13T15:46:59;1016.9;;;3.8;73.7
53699;BME280;39591;53.952;27.612;2023-02-13T15:51:21;1016.9;;;3.8;73.8
53699;BME280;39591;53.952;27.612;2023-02-13T15:56:17;1016.9;;;3.8;73.9
53699;BME280;39591;53.952;27.612;2023-02-13T16:01:41;1016.9;;;3.8;73.9
53699;BME280;39591;53.952;27.612;2023-02-13T16:06:53;1016.9;;;3.8;74.1
53699;BME280;39591;53.952;27.612;2023-02-13T16:11:39;1016.9;;;3.8;74.2
53699;BME280;39591;53.952;27.612;2023-02-13T16:16:32;1017;;;3.8;74.2
53699;BME280;39591;53.952;27.612;2023-02-13T16:21:19;1017;;;3.8;74.3
53699;BME280;39591;53.952;27.612;2023-02-13T16:26:33;1016.9;;;3.8;74.2
53699;BME280;39591;53.952;27.612;2023-02-13T16:31:53;1016.9;;;3.8;74.3
53699;BME280;39591;53.952;27.612;2023-02-13T16:36:32;1016.9;;;3.8;74.2
53699;BME280;39591;53.952;27.612;2023-02-13T16:41:45;1017;;;3.8;74.2
53699;BME280;39591;53.952;27.612;2023-02-13T16:46:45;1017;;;3.8;74.3
53699;BME280;39591;53.952;27.612;2023-02-13T16:51:33;1017;;;3.8;74.3
53699;BME280;39591;53.952;27.612;2023-02-13T16:56:17;1016.9;;;3.9;74
53699;BME280;39591;53.952;27.612;2023-02-13T17:01:19;1016.8;;;4;73.7
53699;BME280;39591;53.952;27.612;2023-02-13T17:06:39;1016.6;;;4;73.8
53699;BME280;39591;53.952;27.612;2023-02-13T17:11:19;1016.7;;;4;73.8
53699;BME280;39591;53.952;27.612;2023-02-13T17:16:43;1016.7;;;4;73.6
53699;BME280;39591;53.952;27.612;2023-02-13T17:21:19;1016.7;;;4;73.7
53699;BME280;39591;53.952;27.612;2023-02-13T17:26:55;1016.7;;;4;73.6
53699;BME280;39591;53.952;27.612;2023-02-13T17:31:07;1016.6;;;4;73.6
53699;BME280;39591;53.952;27.612;2023-02-13T17:36:41;1016.5;;;4;73.5
53699;BME280;39591;53.952;27.612;2023-02-13T17:41:09;1016.5;;;4.1;73.5
53699;BME280;39591;53.952;27.612;2023-02-13T17:46:15;1016.3;;;4.1;73.7
53699;BME280;39591;53.952;27.612;2023-02-13T17:51:31;1016.3;;;4.1;73.5
53699;BME280;39591;53.952;27.612;2023-02-13T17:56:07;1016.1;;;4.1;73.5
53699;BME280;39591;53.952;27.612;2023-02-13T18:01:53;1016;;;4.1;73.3
53699;BME280;39591;53.952;27.612;2023-02-13T18:06:53;1016;;;4.1;73.3
53699;BME280;39591;53.952;27.612;2023-02-13T18:11:29;1016.1;;;4.1;73.3
53699;BME280;39591;53.952;27.612;2023-02-13T18:16:57;1016.2;;;4.2;73.3
53699;BME280;39591;53.952;27.612;2023-02-13T18:21:55;1016;;;4.2;73.3
53699;BME280;39591;53.952;27.612;2023-02-13T18:26:08;1015.9;;;4.2;73.2
53699;BME280;39591;53.952;27.612;2023-02-13T18:31:20;1016.1;;;4.2;73.1
53699;BME280;39591;53.952;27.612;2023-02-13T18:36:56;1016;;;4.2;73.1
53699;BME280;39591;53.952;27.612;2023-02-13T18:41:19;1016;;;4.2;73.1
53699;BME280;39591;53.952;27.612;2023-02-13T18:46:22;1016;;;4.2;73.1
53699;BME280;39591;53.952;27.612;2023-02-13T18:51:07;1016;;;4.2;73.2
53699;BME280;39591;53.952;27.612;2023-02-13T18:56:17;1015.9;;;4.2;73.3
53699;BME280;39591;53.952;27.612;2023-02-13T19:06:08;1015.8;;;4.1;73.3
53699;BME280;39591;53.952;27.612;2023-02-13T19:11:56;1015.8;;;4.2;73.1
53699;BME280;39591;53.952;27.612;2023-02-13T19:16:08;1015.8;;;4.2;72.9
53699;BME280;39591;53.952;27.612;2023-02-13T19:21:43;1015.8;;;4.2;72.9
53699;BME280;39591;53.952;27.612;2023-02-13T19:26:31;1015.9;;;4.1;73
53699;BME280;39591;53.952;27.612;2023-02-13T19:31:43;1015.7;;;4.1;73.1
53699;BME280;39591;53.952;27.612;2023-02-13T19:36:27;1015.7;;;4.2;73.1
53699;BME280;39591;53.952;27.612;2023-02-13T19:41:08;1015.6;;;4.2;73
53699;BME280;39591;53.952;27.612;2023-02-13T19:46:41;1015.5;;;4.1;73
53699;BME280;39591;53.952;27.612;2023-02-13T19:51:07;1015.5;;;4.1;73.2
53699;BME280;39591;53.952;27.612;2023-02-13T19:56:53;1015.5;;;4.1;73.2
53699;BME280;39591;53.952;27.612;2023-02-13T20:01:16;1015.5;;;4;73.4
53699;BME280;39591;53.952;27.612;2023-02-13T20:06:55;1015.4;;;3.9;73.5
53699;BME280;39591;53.952;27.612;2023-02-13T20:11:31;1015.4;;;3.9;73.6
53699;BME280;39591;53.952;27.612;2023-02-13T20:16:55;1015.4;;;4;73.6
53699;BME280;39591;53.952;27.612;2023-02-13T20:21:27;1015.3;;;4;73.5
53699;BME280;39591;53.952;27.612;2023-02-13T20:26:45;1015.4;;;3.9;73.7
53699;BME280;39591;53.952;27.612;2023-02-13T20:31:20;1015.5;;;3.9;73.7
53699;BME280;39591;53.952;27.612;2023-02-13T20:36:43;1015.4;;;3.9;73.7
53699;BME280;39591;53.952;27.612;2023-02-13T20:41:34;1015.6;;;3.9;73.7
53699;BME280;39591;53.952;27.612;2023-02-13T20:46:55;1015.5;;;3.9;73.7
53699;BME280;39591;53.952;27.612;2023-02-13T20:51:55;1015.5;;;3.8;73.8
53699;BME280;39591;53.952;27.612;2023-02-13T20:56:08;1015.5;;;3.7;73.9
53699;BME280;39591;53.952;27.612;2023-02-13T21:01:55;1015.4;;;3.7;73.9
53699;BME280;39591;53.952;27.612;2023-02-13T21:06:55;1015.5;;;3.7;73.9
53699;BME280;39591;53.952;27.612;2023-02-13T21:11:43;1015.4;;;3.8;73.8
53699;BME280;39591;53.952;27.612;2023-02-13T21:16:22;1015.4;;;3.8;73.8
53699;BME280;39591;53.952;27.612;2023-02-13T21:21:43;1015.4;;;3.8;73.9
53699;BME280;39591;53.952;27.612;2023-02-13T21:26:17;1015.4;;;3.8;73.8
53699;BME280;39591;53.952;27.612;2023-02-13T21:31:42;1015.5;;;3.8;73.7
53699;BME280;39591;53.952;27.612;2023-02-13T21:36:39;1015.4;;;3.8;73.6
53699;BME280;39591;53.952;27.612;2023-02-13T21:41:55;1015.4;;;3.8;73.5
53699;BME280;39591;53.952;27.612;2023-02-13T21:46:55;1015.3;;;3.9;73.5
53699;BME280;39591;53.952;27.612;2023-02-13T21:51:41;1015.4;;;3.8;73.4
53699;BME280;39591;53.952;27.612;2023-02-13T21:56:55;1015.3;;;3.8;73.2
53699;BME280;39591;53.952;27.612;2023-02-13T22:01:20;1015.4;;;3.8;73.2
53699;BME280;39591;53.952;27.612;2023-02-13T22:06:45;1015.2;;;3.8;73.1
53699;BME280;39591;53.952;27.612;2023-02-13T22:11:19;1015.1;;;3.9;72.9
53699;BME280;39591;53.952;27.612;2023-02-13T22:16:32;1015.2;;;3.9;72.8
53699;BME280;39591;53.952;27.612;2023-02-13T22:21:32;1015.1;;;3.9;72.6
53699;BME280;39591;53.952;27.612;2023-02-13T22:26:57;1015.1;;;3.9;72.6
53699;BME280;39591;53.952;27.612;2023-02-13T22:31:31;1015.1;;;4;72.6
53699;BME280;39591;53.952;27.612;2023-02-13T22:36:55;1014.9;;;4;72.6
53699;BME280;39591;53.952;27.612;2023-02-13T22:41:08;1014.9;;;4;72.6
53699;BME280;39591;53.952;27.612;2023-02-13T22:46:09;1014.9;;;4.1;72.3
53699;BME280;39591;53.952;27.612;2023-02-13T22:51:08;1014.9;;;4.1;72.1
53699;BME280;39591;53.952;27.612;2023-02-13T22:56:41;1015.1;;;4;72.2
53699;BME280;39591;53.952;27.612;2023-02-13T23:01:55;1015.2;;;4;72.2
53699;BME280;39591;53.952;27.612;2023-02-13T23:06:20;1015.3;;;4;72.1
53699;BME280;39591;53.952;27.612;2023-02-13T23:11:31;1015.2;;;4;71.9
53699;BME280;39591;53.952;27.612;2023-02-13T23:16:31;1015.2;;;4;71.8
53699;BME280;39591;53.952;27.612;2023-02-13T23:21:57;1015.2;;;4;71.9
53699;BME280;39591;53.952;27.612;2023-02-13T23:26:47;1015.1;;;4;71.8
53699;BME280;39591;53.952;27.612;2023-02-13T23:31:27;1015.2;;;3.9;71.7
53699;BME280;39591;53.952;27.612;2023-02-13T23:36:33;1015.4;;;3.9;71.8
53699;BME280;39591;53.952;27.612;2023-02-13T23:41:07;1015.5;;;3.9;71.8
53699;BME280;39591;53.952;27.612;2023-02-13T23:46:19;1015.6;;;3.9;71.8
53699;BME280;39591;53.952;27.612;2023-02-13T23:51:17;1015.5;;;3.8;71.8
53699;BME280;39591;53.952;27.612;2023-02-13T23:56:55;1015.5;;;3.9;71.7
